createdAt,value
2019-02-12T00:00:14.762Z,1010.80
2019-02-12T00:01:25.933Z,1010.81
2019-02-12T00:02:37.094Z,1010.80
2019-02-12T00:03:47.758Z,1010.84
2019-02-12T00:04:58.925Z,1010.83
2019-02-12T00:06:10.107Z,1010.85
2019-02-12T00:07:21.265Z,1010.92
2019-02-12T00:08:32.430Z,1010.93
2019-02-12T00:09:43.599Z,1010.93
2019-02-12T00:10:54.772Z,1010.98
2019-02-12T00:12:05.949Z,1011.03
2019-02-12T00:13:17.109Z,1011.06
2019-02-12T00:14:28.275Z,1011.09
2019-02-12T00:15:39.437Z,1011.07
2019-02-12T00:16:50.640Z,1011.11
2019-02-12T00:18:01.310Z,1011.09
2019-02-12T00:19:12.637Z,1011.08
2019-02-12T00:20:23.807Z,1011.15
2019-02-12T00:21:34.973Z,1011.15
2019-02-12T00:22:46.132Z,1011.14
2019-02-12T00:23:57.293Z,1011.07
2019-02-12T00:25:08.449Z,1011.08
2019-02-12T00:26:19.600Z,1011.03
2019-02-12T00:27:31.059Z,1011.01
2019-02-12T00:28:42.220Z,1011.00
2019-02-12T00:29:53.386Z,1010.99
2019-02-12T00:31:04.549Z,1010.93
2019-02-12T00:32:15.724Z,1011.00
2019-02-12T00:33:26.890Z,1010.96
2019-02-12T00:34:38.058Z,1010.93
2019-02-12T00:35:49.213Z,1010.84
2019-02-12T00:36:59.898Z,1010.86
2019-02-12T00:38:11.063Z,1010.88
2019-02-12T00:39:22.228Z,1010.80
2019-02-12T00:40:33.395Z,1010.78
2019-02-12T00:41:44.622Z,1010.72
2019-02-12T00:42:55.790Z,1010.69
2019-02-12T00:44:06.959Z,1010.68
2019-02-12T00:45:18.120Z,1010.71
2019-02-12T00:46:29.283Z,1010.68
2019-02-12T00:47:40.443Z,1010.59
2019-02-12T00:48:51.608Z,1010.55
2019-02-12T00:50:02.871Z,1010.56
2019-02-12T00:51:17.793Z,1010.55
2019-02-12T00:52:24.597Z,1010.52
2019-02-12T00:53:35.766Z,1010.51
2019-02-12T00:54:46.928Z,1010.49
2019-02-12T00:55:58.097Z,1010.49
2019-02-12T00:57:08.754Z,1010.52
2019-02-12T00:58:19.931Z,1010.46
2019-02-12T00:59:31.093Z,1010.51
2019-02-12T01:00:42.262Z,1010.49
2019-02-12T01:01:53.431Z,1010.50
2019-02-12T01:03:04.626Z,1010.44
2019-02-12T01:04:15.793Z,1010.40
2019-02-12T01:05:26.951Z,1010.38
2019-02-12T01:06:38.106Z,1010.36
2019-02-12T01:07:49.275Z,1010.39
2019-02-12T01:09:00.446Z,1010.38
2019-02-12T01:10:11.613Z,1010.34
2019-02-12T01:11:22.781Z,1010.34
2019-02-12T01:12:33.957Z,1010.31
2019-02-12T01:13:45.118Z,1010.28
2019-02-12T01:14:56.275Z,1010.22
2019-02-12T01:16:07.440Z,1010.22
2019-02-12T01:17:18.636Z,1010.22
2019-02-12T01:18:29.831Z,1010.16
2019-02-12T01:19:40.991Z,1010.19
2019-02-12T01:20:52.160Z,1010.15
2019-02-12T01:22:03.333Z,1010.22
2019-02-12T01:23:14.631Z,1010.22
2019-02-12T01:24:25.804Z,1010.22
2019-02-12T01:25:36.974Z,1010.20
2019-02-12T01:26:48.142Z,1010.21
2019-02-12T01:27:59.308Z,1010.18
2019-02-12T01:29:10.482Z,1010.19
2019-02-12T01:30:21.650Z,1010.26
2019-02-12T01:31:32.326Z,1010.26
2019-02-12T01:32:43.495Z,1010.27
2019-02-12T01:33:54.691Z,1010.26
2019-02-12T01:35:05.859Z,1010.27
2019-02-12T01:36:17.029Z,1010.28
2019-02-12T01:37:27.699Z,1010.24
2019-02-12T01:38:38.862Z,1010.25
2019-02-12T01:39:50.026Z,1010.18
2019-02-12T01:41:00.692Z,1010.18
2019-02-12T01:42:11.853Z,1010.25
2019-02-12T01:43:23.017Z,1010.30
2019-02-12T01:44:34.180Z,1010.30
2019-02-12T01:45:45.344Z,1010.33
2019-02-12T01:46:56.627Z,1010.34
2019-02-12T01:48:07.794Z,1010.32
2019-02-12T01:49:18.959Z,1010.36
2019-02-12T01:50:30.143Z,1010.33
2019-02-12T01:51:41.304Z,1010.35
2019-02-12T01:52:52.623Z,1010.31
2019-02-12T01:54:03.794Z,1010.30
2019-02-12T01:55:14.972Z,1010.31
2019-02-12T01:56:26.133Z,1010.30
2019-02-12T01:57:37.306Z,1010.36
2019-02-12T01:58:49.471Z,1010.39
2019-02-12T02:00:00.658Z,1010.39
2019-02-12T02:01:11.814Z,1010.39
2019-02-12T02:02:22.976Z,1010.46
2019-02-12T02:03:34.140Z,1010.51
2019-02-12T02:04:45.310Z,1010.46
2019-02-12T02:05:56.628Z,1010.47
2019-02-12T02:07:07.796Z,1010.50
2019-02-12T02:08:18.961Z,1010.52
2019-02-12T02:09:30.138Z,1010.49
2019-02-12T02:10:41.309Z,1010.57
2019-02-12T02:11:53.792Z,1010.56
2019-02-12T02:13:04.966Z,1010.53
2019-02-12T02:14:16.137Z,1010.54
2019-02-12T02:15:27.316Z,1010.54
2019-02-12T02:16:38.618Z,1010.55
2019-02-12T02:17:49.286Z,1010.55
2019-02-12T02:19:00.623Z,1010.51
2019-02-12T02:20:11.800Z,1010.51
2019-02-12T02:21:22.963Z,1010.51
2019-02-12T02:22:34.145Z,1010.51
2019-02-12T02:23:45.298Z,1010.60
2019-02-12T02:24:56.618Z,1010.57
2019-02-12T02:26:07.779Z,1010.56
2019-02-12T02:27:18.948Z,1010.56
2019-02-12T02:28:30.125Z,1010.59
2019-02-12T02:29:41.315Z,1010.61
2019-02-12T02:30:52.612Z,1010.63
2019-02-12T02:32:03.286Z,1010.60
2019-02-12T02:33:13.958Z,1010.59
2019-02-12T02:34:25.120Z,1010.60
2019-02-12T02:35:36.281Z,1010.63
2019-02-12T02:36:47.451Z,1010.63
2019-02-12T02:37:58.619Z,1010.64
2019-02-12T02:39:09.790Z,1010.61
2019-02-12T02:40:20.960Z,1010.61
2019-02-12T02:41:31.636Z,1010.59
2019-02-12T02:42:42.310Z,1010.62
2019-02-12T02:43:53.487Z,1010.62
2019-02-12T02:45:04.669Z,1010.62
2019-02-12T02:46:15.835Z,1010.61
2019-02-12T02:47:27.015Z,1010.69
2019-02-12T02:48:38.681Z,1010.64
2019-02-12T02:49:49.855Z,1010.64
2019-02-12T02:51:01.030Z,1010.69
2019-02-12T02:52:12.201Z,1010.70
2019-02-12T02:53:23.367Z,1010.69
2019-02-12T02:54:34.618Z,1010.74
2019-02-12T02:55:45.786Z,1010.70
2019-02-12T02:56:57.957Z,1010.70
2019-02-12T02:58:09.118Z,1010.78
2019-02-12T02:59:20.276Z,1010.76
2019-02-12T03:00:31.445Z,1010.82
2019-02-12T03:01:42.609Z,1010.82
2019-02-12T03:02:53.773Z,1010.83
2019-02-12T03:04:05.941Z,1010.87
2019-02-12T03:05:17.613Z,1010.81
2019-02-12T03:06:28.789Z,1010.86
2019-02-12T03:07:39.959Z,1010.91
2019-02-12T03:08:51.118Z,1010.91
2019-02-12T03:10:02.290Z,1010.92
2019-02-12T03:11:13.454Z,1010.90
2019-02-12T03:12:24.618Z,1010.92
2019-02-12T03:13:35.791Z,1010.91
2019-02-12T03:14:47.966Z,1010.97
2019-02-12T03:15:59.142Z,1010.98
2019-02-12T03:17:09.821Z,1011.00
2019-02-12T03:18:20.981Z,1011.06
2019-02-12T03:19:32.150Z,1011.05
2019-02-12T03:20:43.321Z,1011.10
2019-02-12T03:22:03.134Z,1011.12
2019-02-12T03:23:06.783Z,1011.13
2019-02-12T03:24:17.952Z,1011.15
2019-02-12T03:25:29.120Z,1011.14
2019-02-12T03:26:40.300Z,1011.23
2019-02-12T03:27:51.466Z,1011.30
2019-02-12T03:29:02.637Z,1011.27
2019-02-12T03:30:13.818Z,1011.36
2019-02-12T03:31:24.978Z,1011.37
2019-02-12T03:32:36.149Z,1011.34
2019-02-12T03:33:48.307Z,1011.39
2019-02-12T03:34:59.463Z,1011.34
2019-02-12T03:36:10.650Z,1011.28
2019-02-12T03:37:21.833Z,1011.26
2019-02-12T03:38:33.000Z,1011.29
2019-02-12T03:39:44.176Z,1011.25
2019-02-12T03:40:56.347Z,1011.20
2019-02-12T03:42:07.511Z,1011.20
2019-02-12T03:43:18.672Z,1011.26
2019-02-12T03:44:29.846Z,1011.27
2019-02-12T03:45:41.023Z,1011.21
2019-02-12T03:46:52.174Z,1011.22
2019-02-12T03:48:03.338Z,1011.23
2019-02-12T03:49:14.636Z,1011.18
2019-02-12T03:50:25.811Z,1011.23
2019-02-12T03:51:36.497Z,1011.23
2019-02-12T03:52:47.658Z,1011.24
2019-02-12T03:53:58.827Z,1011.30
2019-02-12T03:55:09.996Z,1011.33
2019-02-12T03:56:21.174Z,1011.33
2019-02-12T03:57:32.342Z,1011.31
2019-02-12T03:58:43.529Z,1011.39
2019-02-12T03:59:54.701Z,1011.34
2019-02-12T04:01:05.871Z,1011.36
2019-02-12T04:02:17.035Z,1011.43
2019-02-12T04:03:28.208Z,1011.36
2019-02-12T04:04:39.374Z,1011.37
2019-02-12T04:05:50.610Z,1011.46
2019-02-12T04:07:01.788Z,1011.51
2019-02-12T04:08:12.960Z,1011.52
2019-02-12T04:09:23.638Z,1011.49
2019-02-12T04:10:34.796Z,1011.48
2019-02-12T04:11:45.966Z,1011.51
2019-02-12T04:12:57.128Z,1011.52
2019-02-12T04:14:08.300Z,1011.54
2019-02-12T04:15:19.487Z,1011.59
2019-02-12T04:16:30.666Z,1011.58
2019-02-12T04:17:41.834Z,1011.56
2019-02-12T04:18:52.992Z,1011.57
2019-02-12T04:20:04.157Z,1011.55
2019-02-12T04:21:14.825Z,1011.49
2019-02-12T04:22:26.001Z,1011.44
2019-02-12T04:23:37.176Z,1011.45
2019-02-12T04:24:47.859Z,1011.41
2019-02-12T04:25:59.037Z,1011.35
2019-02-12T04:27:10.216Z,1011.35
2019-02-12T04:28:21.388Z,1011.32
2019-02-12T04:29:32.560Z,1011.31
2019-02-12T04:30:43.730Z,1011.27
2019-02-12T04:31:54.910Z,1011.26
2019-02-12T04:33:06.080Z,1011.22
2019-02-12T04:34:16.771Z,1011.25
2019-02-12T04:35:27.928Z,1011.27
2019-02-12T04:36:39.098Z,1011.30
2019-02-12T04:37:50.258Z,1011.37
2019-02-12T04:39:01.430Z,1011.35
2019-02-12T04:40:12.625Z,1011.41
2019-02-12T04:41:23.782Z,1011.42
2019-02-12T04:42:34.949Z,1011.45
2019-02-12T04:43:46.113Z,1011.45
2019-02-12T04:44:57.275Z,1011.44
2019-02-12T04:46:08.445Z,1011.35
2019-02-12T04:47:19.608Z,1011.43
2019-02-12T04:48:30.774Z,1011.43
2019-02-12T04:49:41.933Z,1011.49
2019-02-12T04:50:53.124Z,1011.51
2019-02-12T04:52:04.290Z,1011.50
2019-02-12T04:53:15.463Z,1011.48
2019-02-12T04:54:26.624Z,1011.48
2019-02-12T04:55:37.789Z,1011.51
2019-02-12T04:56:48.950Z,1011.52
2019-02-12T04:58:00.151Z,1011.55
2019-02-12T04:59:11.316Z,1011.56
2019-02-12T05:00:22.625Z,1011.60
2019-02-12T05:01:33.797Z,1011.63
2019-02-12T05:02:44.967Z,1011.58
2019-02-12T05:03:56.138Z,1011.56
2019-02-12T05:05:07.312Z,1011.60
2019-02-12T05:06:19.474Z,1011.56
2019-02-12T05:07:30.641Z,1011.56
2019-02-12T05:08:41.798Z,1011.58
2019-02-12T05:09:52.965Z,1011.61
2019-02-12T05:11:04.127Z,1011.56
2019-02-12T05:12:15.295Z,1011.57
2019-02-12T05:13:26.662Z,1011.56
2019-02-12T05:14:37.822Z,1011.51
2019-02-12T05:15:48.993Z,1011.53
2019-02-12T05:17:00.161Z,1011.46
2019-02-12T05:18:11.329Z,1011.46
2019-02-12T05:19:22.616Z,1011.49
2019-02-12T05:20:33.783Z,1011.49
2019-02-12T05:21:44.947Z,1011.51
2019-02-12T05:22:56.110Z,1011.50
2019-02-12T05:24:07.276Z,1011.44
2019-02-12T05:25:18.443Z,1011.37
2019-02-12T05:26:29.618Z,1011.30
2019-02-12T05:27:40.854Z,1011.35
2019-02-12T05:28:51.956Z,1011.34
2019-02-12T05:30:03.121Z,1011.33
2019-02-12T05:31:14.289Z,1011.31
2019-02-12T05:32:25.461Z,1011.37
2019-02-12T05:33:36.627Z,1011.28
2019-02-12T05:34:47.840Z,1011.28
2019-02-12T05:35:58.967Z,1011.29
2019-02-12T05:37:10.133Z,1011.31
2019-02-12T05:38:21.293Z,1011.36
2019-02-12T05:39:32.645Z,1011.38
2019-02-12T05:40:43.783Z,1011.44
2019-02-12T05:41:54.944Z,1011.47
2019-02-12T05:43:06.103Z,1011.45
2019-02-12T05:44:17.337Z,1011.36
2019-02-12T05:45:28.443Z,1011.35
2019-02-12T05:46:42.076Z,1011.33
2019-02-12T05:47:53.235Z,1011.28
2019-02-12T05:49:04.398Z,1011.30
2019-02-12T05:50:15.559Z,1011.25
2019-02-12T05:51:26.724Z,1011.25
2019-02-12T05:52:37.898Z,1011.26
2019-02-12T05:53:49.058Z,1011.27
2019-02-12T05:55:00.415Z,1011.28
2019-02-12T05:56:11.413Z,1011.32
2019-02-12T05:57:22.623Z,1011.30
2019-02-12T05:58:33.804Z,1011.32
2019-02-12T05:59:46.982Z,1011.34
2019-02-12T06:00:56.148Z,1011.40
2019-02-12T06:02:07.320Z,1011.39
2019-02-12T06:03:18.000Z,1011.38
2019-02-12T06:04:29.167Z,1011.45
2019-02-12T06:05:40.343Z,1011.48
2019-02-12T06:06:51.506Z,1011.49
2019-02-12T06:08:02.680Z,1011.55
2019-02-12T06:09:13.844Z,1011.56
2019-02-12T06:10:25.015Z,1011.64
2019-02-12T06:11:36.172Z,1011.62
2019-02-12T06:12:47.357Z,1011.65
2019-02-12T06:13:58.625Z,1011.74
2019-02-12T06:15:09.802Z,1011.75
2019-02-12T06:16:21.969Z,1011.80
2019-02-12T06:17:33.142Z,1011.82
2019-02-12T06:18:44.310Z,1011.92
2019-02-12T06:19:55.510Z,1011.93
2019-02-12T06:21:06.660Z,1011.90
2019-02-12T06:22:17.832Z,1011.97
2019-02-12T06:23:28.999Z,1011.97
2019-02-12T06:24:39.674Z,1011.97
2019-02-12T06:25:50.841Z,1011.98
2019-02-12T06:27:02.016Z,1012.01
2019-02-12T06:28:13.182Z,1012.01
2019-02-12T06:29:24.333Z,1012.04
2019-02-12T06:30:35.505Z,1011.99
2019-02-12T06:31:46.688Z,1012.11
2019-02-12T06:33:06.958Z,1012.02
2019-02-12T06:34:09.019Z,1012.07
2019-02-12T06:35:20.192Z,1012.12
2019-02-12T06:36:31.361Z,1012.10
2019-02-12T06:37:42.628Z,1012.12
2019-02-12T06:38:53.781Z,1012.15
2019-02-12T06:40:04.968Z,1012.14
2019-02-12T06:41:16.119Z,1012.13
2019-02-12T06:42:26.940Z,1012.17
2019-02-12T06:43:37.955Z,1012.12
2019-02-12T06:44:49.118Z,1012.03
2019-02-12T06:46:00.285Z,1012.05
2019-02-12T06:47:11.458Z,1012.09
2019-02-12T06:48:22.618Z,1012.12
2019-02-12T06:49:33.795Z,1012.14
2019-02-12T06:50:44.957Z,1012.17
2019-02-12T06:51:56.125Z,1012.17
2019-02-12T06:53:12.510Z,1012.18
2019-02-12T06:54:18.626Z,1012.15
2019-02-12T06:55:29.801Z,1012.19
2019-02-12T06:56:40.986Z,1012.26
2019-02-12T06:57:52.158Z,1012.28
2019-02-12T06:59:03.343Z,1012.30
2019-02-12T07:00:14.649Z,1012.31
2019-02-12T07:01:25.802Z,1012.33
2019-02-12T07:02:36.978Z,1012.36
2019-02-12T07:03:48.146Z,1012.38
2019-02-12T07:04:59.336Z,1012.41
2019-02-12T07:06:10.628Z,1012.43
2019-02-12T07:07:21.797Z,1012.42
2019-02-12T07:08:33.969Z,1012.47
2019-02-12T07:09:45.152Z,1012.50
2019-02-12T07:10:57.314Z,1012.51
2019-02-12T07:12:08.622Z,1012.57
2019-02-12T07:13:19.799Z,1012.59
2019-02-12T07:14:30.974Z,1012.59
2019-02-12T07:15:42.435Z,1012.61
2019-02-12T07:16:53.606Z,1012.63
2019-02-12T07:18:04.778Z,1012.67
2019-02-12T07:19:15.944Z,1012.67
2019-02-12T07:20:27.106Z,1012.67
2019-02-12T07:21:38.282Z,1012.66
2019-02-12T07:22:49.467Z,1012.67
2019-02-12T07:24:00.643Z,1012.72
2019-02-12T07:25:11.823Z,1012.72
2019-02-12T07:26:23.005Z,1012.82
2019-02-12T07:27:34.180Z,1012.75
2019-02-12T07:28:45.360Z,1012.81
2019-02-12T07:29:56.647Z,1012.80
2019-02-12T07:31:07.786Z,1012.83
2019-02-12T07:32:18.470Z,1012.85
2019-02-12T07:33:29.640Z,1012.88
2019-02-12T07:34:40.826Z,1012.89
2019-02-12T07:35:52.008Z,1012.89
2019-02-12T07:37:03.182Z,1012.93
2019-02-12T07:38:14.374Z,1012.95
2019-02-12T07:39:25.548Z,1012.94
2019-02-12T07:40:36.732Z,1012.95
2019-02-12T07:41:47.920Z,1012.93
2019-02-12T07:42:59.079Z,1012.98
2019-02-12T07:44:10.257Z,1012.98
2019-02-12T07:45:21.433Z,1012.97
2019-02-12T07:46:32.620Z,1013.04
2019-02-12T07:47:43.308Z,1013.10
2019-02-12T07:48:54.628Z,1013.17
2019-02-12T07:50:05.837Z,1013.17
2019-02-12T07:51:17.015Z,1013.18
2019-02-12T07:52:28.186Z,1013.19
2019-02-12T07:53:39.372Z,1013.21
2019-02-12T07:54:50.567Z,1013.21
2019-02-12T07:56:01.744Z,1013.21
2019-02-12T07:57:12.926Z,1013.19
2019-02-12T07:58:24.116Z,1013.28
2019-02-12T07:59:35.313Z,1013.19
2019-02-12T08:00:46.732Z,1013.20
2019-02-12T08:01:58.915Z,1013.21
2019-02-12T08:03:09.627Z,1013.21
2019-02-12T08:04:20.817Z,1013.15
2019-02-12T08:05:32.013Z,1013.15
2019-02-12T08:06:43.214Z,1013.15
2019-02-12T08:07:54.401Z,1013.12
2019-02-12T08:09:05.596Z,1013.15
2019-02-12T08:10:16.804Z,1013.08
2019-02-12T08:11:27.991Z,1013.13
2019-02-12T08:12:39.187Z,1013.09
2019-02-12T08:13:50.361Z,1013.10
2019-02-12T08:15:01.611Z,1013.07
2019-02-12T08:16:12.800Z,1013.04
2019-02-12T08:17:23.994Z,1013.00
2019-02-12T08:18:35.177Z,1012.98
2019-02-12T08:19:46.379Z,1012.94
2019-02-12T08:20:57.583Z,1012.93
2019-02-12T08:22:08.772Z,1012.83
2019-02-12T08:23:19.983Z,1012.79
2019-02-12T08:24:31.203Z,1012.73
2019-02-12T08:25:42.407Z,1012.73
2019-02-12T08:26:53.600Z,1012.67
2019-02-12T08:28:04.784Z,1012.61
2019-02-12T08:29:15.993Z,1012.60
2019-02-12T08:30:27.212Z,1012.58
2019-02-12T08:31:38.388Z,1012.51
2019-02-12T08:32:49.574Z,1012.49
2019-02-12T08:34:00.771Z,1012.43
2019-02-12T08:35:11.959Z,1012.43
2019-02-12T08:36:23.143Z,1012.49
2019-02-12T08:37:34.339Z,1012.43
2019-02-12T08:38:45.049Z,1012.46
2019-02-12T08:39:56.251Z,1012.47
2019-02-12T08:41:07.452Z,1012.44
2019-02-12T08:42:18.632Z,1012.44
2019-02-12T08:43:29.849Z,1012.46
2019-02-12T08:44:42.046Z,1012.48
2019-02-12T08:45:53.250Z,1012.47
2019-02-12T08:47:04.448Z,1012.50
2019-02-12T08:48:15.645Z,1012.51
2019-02-12T08:49:26.841Z,1012.50
2019-02-12T08:50:38.037Z,1012.51
2019-02-12T08:51:49.228Z,1012.50
2019-02-12T08:53:00.438Z,1012.49
2019-02-12T08:54:11.638Z,1012.51
2019-02-12T08:55:22.845Z,1012.40
2019-02-12T08:56:34.038Z,1012.41
2019-02-12T08:57:45.232Z,1012.38
2019-02-12T08:58:56.426Z,1012.37
2019-02-12T09:00:07.635Z,1012.31
2019-02-12T09:01:18.835Z,1012.30
2019-02-12T09:02:30.042Z,1012.20
2019-02-12T09:03:41.252Z,1012.16
2019-02-12T09:04:52.629Z,1012.16
2019-02-12T09:06:04.185Z,1012.08
2019-02-12T09:07:15.047Z,1012.04
2019-02-12T09:08:27.247Z,1011.97
2019-02-12T09:09:38.509Z,1011.90
2019-02-12T09:10:50.718Z,1011.88
2019-02-12T09:12:01.944Z,1011.85
2019-02-12T09:13:13.156Z,1011.90
2019-02-12T09:14:24.361Z,1011.93
2019-02-12T09:15:35.571Z,1011.89
2019-02-12T09:16:46.777Z,1011.88
2019-02-12T09:17:57.984Z,1011.85
2019-02-12T09:19:09.183Z,1011.85
2019-02-12T09:20:20.389Z,1011.92
2019-02-12T09:21:31.607Z,1011.85
2019-02-12T09:22:42.822Z,1011.90
2019-02-12T09:24:00.030Z,1011.90
2019-02-12T09:25:05.222Z,1011.89
2019-02-12T09:26:16.440Z,1011.81
2019-02-12T09:27:27.648Z,1011.80
2019-02-12T09:28:38.858Z,1011.82
2019-02-12T09:29:50.071Z,1011.79
2019-02-12T09:31:01.281Z,1011.79
2019-02-12T09:32:12.625Z,1011.84
2019-02-12T09:33:23.839Z,1011.82
2019-02-12T09:34:35.054Z,1011.81
2019-02-12T09:35:46.266Z,1011.79
2019-02-12T09:36:57.504Z,1011.78
2019-02-12T09:38:08.720Z,1011.79
2019-02-12T09:39:19.949Z,1011.76
2019-02-12T09:40:31.192Z,1011.78
2019-02-12T09:41:42.409Z,1011.82
2019-02-12T09:42:53.622Z,1011.82
2019-02-12T09:44:04.828Z,1011.92
2019-02-12T09:45:16.041Z,1011.82
2019-02-12T09:46:27.270Z,1011.88
2019-02-12T09:47:38.498Z,1011.79
2019-02-12T09:48:49.711Z,1011.90
2019-02-12T09:50:00.932Z,1011.85
2019-02-12T09:51:12.144Z,1011.96
2019-02-12T09:52:23.374Z,1012.00
2019-02-12T09:53:34.589Z,1012.01
2019-02-12T09:54:45.820Z,1011.99
2019-02-12T09:55:57.030Z,1011.99
2019-02-12T09:57:08.259Z,1011.96
2019-02-12T09:58:19.472Z,1011.98
2019-02-12T09:59:30.752Z,1011.94
2019-02-12T10:00:41.966Z,1011.94
2019-02-12T10:01:53.145Z,1011.89
2019-02-12T10:03:04.372Z,1011.87
2019-02-12T10:04:15.604Z,1011.82
2019-02-12T10:05:26.916Z,1011.84
2019-02-12T10:06:38.050Z,1011.85
2019-02-12T10:07:49.368Z,1011.77
2019-02-12T10:09:00.648Z,1011.76
2019-02-12T10:10:11.874Z,1011.78
2019-02-12T10:11:23.118Z,1011.73
2019-02-12T10:12:34.351Z,1011.62
2019-02-12T10:13:45.592Z,1011.59
2019-02-12T10:14:56.826Z,1011.53
2019-02-12T10:16:08.069Z,1011.45
2019-02-12T10:17:19.309Z,1011.53
2019-02-12T10:18:30.661Z,1011.50
2019-02-12T10:19:41.911Z,1011.45
2019-02-12T10:20:53.163Z,1011.45
2019-02-12T10:22:04.399Z,1011.46
2019-02-12T10:23:15.663Z,1011.44
2019-02-12T10:24:26.881Z,1011.46
2019-02-12T10:25:38.109Z,1011.56
2019-02-12T10:26:49.345Z,1011.57
2019-02-12T10:28:00.640Z,1011.56
2019-02-12T10:29:11.889Z,1011.57
2019-02-12T10:30:23.136Z,1011.64
2019-02-12T10:31:34.363Z,1011.68
2019-02-12T10:32:45.618Z,1011.65
2019-02-12T10:33:56.867Z,1011.70
2019-02-12T10:35:08.112Z,1011.67
2019-02-12T10:36:19.345Z,1011.80
2019-02-12T10:37:30.627Z,1011.74
2019-02-12T10:38:41.870Z,1011.65
2019-02-12T10:39:54.101Z,1011.73
2019-02-12T10:41:05.345Z,1011.67
2019-02-12T10:42:16.615Z,1011.78
2019-02-12T10:43:27.866Z,1011.69
2019-02-12T10:44:39.122Z,1011.71
2019-02-12T10:45:50.362Z,1011.76
2019-02-12T10:47:01.597Z,1011.85
2019-02-12T10:48:12.848Z,1011.89
2019-02-12T10:49:24.098Z,1011.99
2019-02-12T10:50:35.354Z,1012.03
2019-02-12T10:51:46.634Z,1011.94
2019-02-12T10:52:57.884Z,1011.85
2019-02-12T10:54:09.167Z,1011.77
2019-02-12T10:55:20.426Z,1011.64
2019-02-12T10:56:31.672Z,1011.54
2019-02-12T10:57:42.919Z,1011.61
2019-02-12T10:58:54.201Z,1011.65
2019-02-12T11:00:05.446Z,1011.62
2019-02-12T11:01:16.694Z,1011.72
2019-02-12T11:02:27.938Z,1011.56
2019-02-12T11:03:38.686Z,1011.54
2019-02-12T11:04:49.930Z,1011.57
2019-02-12T11:06:01.173Z,1011.59
2019-02-12T11:07:13.415Z,1011.61
2019-02-12T11:08:24.686Z,1011.62
2019-02-12T11:09:35.925Z,1011.71
2019-02-12T11:10:47.191Z,1011.76
2019-02-12T11:11:58.444Z,1011.83
2019-02-12T11:13:09.687Z,1011.89
2019-02-12T11:14:20.929Z,1011.95
2019-02-12T11:15:32.201Z,1012.10
2019-02-12T11:16:43.452Z,1012.08
2019-02-12T11:17:54.698Z,1012.10
2019-02-12T11:19:05.930Z,1012.14
2019-02-12T11:20:17.186Z,1012.17
2019-02-12T11:21:28.432Z,1012.25
2019-02-12T11:22:39.799Z,1012.30
2019-02-12T11:23:51.055Z,1012.29
2019-02-12T11:25:03.307Z,1012.38
2019-02-12T11:26:14.631Z,1012.43
2019-02-12T11:27:25.891Z,1012.43
2019-02-12T11:28:37.144Z,1012.44
2019-02-12T11:29:48.393Z,1012.44
2019-02-12T11:30:59.655Z,1012.47
2019-02-12T11:32:10.882Z,1012.42
2019-02-12T11:33:22.144Z,1012.40
2019-02-12T11:34:33.390Z,1012.44
2019-02-12T11:35:44.874Z,1012.40
2019-02-12T11:36:56.111Z,1012.32
2019-02-12T11:38:07.357Z,1012.29
2019-02-12T11:39:18.635Z,1012.26
2019-02-12T11:40:29.893Z,1012.23
2019-02-12T11:41:41.145Z,1012.14
2019-02-12T11:42:52.383Z,1012.03
2019-02-12T11:44:03.653Z,1011.94
2019-02-12T11:45:14.894Z,1011.86
2019-02-12T11:46:26.136Z,1011.77
2019-02-12T11:47:37.401Z,1011.73
2019-02-12T11:48:48.984Z,1011.68
2019-02-12T11:50:00.306Z,1011.71
2019-02-12T11:51:11.522Z,1011.63
2019-02-12T11:52:22.775Z,1011.59
2019-02-12T11:53:34.033Z,1011.57
2019-02-12T11:54:45.288Z,1011.56
2019-02-12T11:55:56.633Z,1011.53
2019-02-12T11:57:07.911Z,1011.50
2019-02-12T11:58:19.150Z,1011.44
2019-02-12T11:59:30.422Z,1011.45
2019-02-12T12:00:41.702Z,1011.34
2019-02-12T12:01:52.971Z,1011.26
2019-02-12T12:03:04.240Z,1011.19
2019-02-12T12:04:15.509Z,1011.22
2019-02-12T12:05:26.281Z,1011.21
2019-02-12T12:06:37.552Z,1011.23
2019-02-12T12:07:48.821Z,1011.22
2019-02-12T12:09:00.096Z,1011.21
2019-02-12T12:10:11.353Z,1011.10
2019-02-12T12:11:22.628Z,1011.05
2019-02-12T12:12:34.406Z,1010.93
2019-02-12T12:13:45.681Z,1010.96
2019-02-12T12:14:56.953Z,1010.97
2019-02-12T12:16:08.227Z,1010.95
2019-02-12T12:17:19.498Z,1010.99
2019-02-12T12:18:30.767Z,1010.84
2019-02-12T12:19:42.045Z,1010.82
2019-02-12T12:20:53.326Z,1010.75
2019-02-12T12:22:04.107Z,1010.68
2019-02-12T12:23:15.382Z,1010.74
2019-02-12T12:24:26.665Z,1010.76
2019-02-12T12:25:37.473Z,1010.73
2019-02-12T12:26:49.743Z,1010.64
2019-02-12T12:28:01.025Z,1010.61
2019-02-12T12:29:12.308Z,1010.61
2019-02-12T12:30:24.623Z,1010.68
2019-02-12T12:31:35.902Z,1010.63
2019-02-12T12:32:47.200Z,1010.67
2019-02-12T12:33:57.967Z,1010.72
2019-02-12T12:35:10.226Z,1010.76
2019-02-12T12:36:21.560Z,1010.89
2019-02-12T12:37:32.325Z,1010.93
2019-02-12T12:38:43.812Z,1010.98
2019-02-12T12:39:54.877Z,1011.01
2019-02-12T12:41:06.149Z,1011.05
2019-02-12T12:42:16.914Z,1011.16
2019-02-12T12:43:29.788Z,1011.11
2019-02-12T12:44:40.453Z,1011.11
2019-02-12T12:45:51.727Z,1011.17
2019-02-12T12:47:03.002Z,1011.17
2019-02-12T12:48:14.269Z,1011.25
2019-02-12T12:49:27.346Z,1011.30
2019-02-12T12:50:36.805Z,1011.36
2019-02-12T12:51:48.109Z,1011.35
2019-02-12T12:53:00.828Z,1011.31
2019-02-12T12:54:11.607Z,1011.30
2019-02-12T12:55:22.885Z,1011.31
2019-02-12T12:56:34.149Z,1011.31
2019-02-12T12:57:45.418Z,1011.35
2019-02-12T12:58:56.696Z,1011.39
2019-02-12T13:00:07.952Z,1011.37
2019-02-12T13:01:19.227Z,1011.40
2019-02-12T13:02:30.491Z,1011.44
2019-02-12T13:03:41.758Z,1011.56
2019-02-12T13:04:53.023Z,1011.56
2019-02-12T13:06:04.288Z,1011.63
2019-02-12T13:07:15.557Z,1011.65
2019-02-12T13:08:27.816Z,1011.69
2019-02-12T13:09:38.600Z,1011.68
2019-02-12T13:10:49.871Z,1011.63
2019-02-12T13:12:01.137Z,1011.69
2019-02-12T13:13:12.711Z,1011.70
2019-02-12T13:14:24.966Z,1011.72
2019-02-12T13:15:36.234Z,1011.63
2019-02-12T13:16:47.503Z,1011.56
2019-02-12T13:17:58.760Z,1011.53
2019-02-12T13:19:10.028Z,1011.58
2019-02-12T13:20:21.299Z,1011.63
2019-02-12T13:21:32.643Z,1011.62
2019-02-12T13:22:43.921Z,1011.60
2019-02-12T13:23:55.192Z,1011.53
2019-02-12T13:25:08.656Z,1011.51
2019-02-12T13:26:17.904Z,1011.48
2019-02-12T13:27:29.180Z,1011.48
2019-02-12T13:28:40.447Z,1011.39
2019-02-12T13:29:51.238Z,1011.37
2019-02-12T13:31:02.516Z,1011.22
2019-02-12T13:32:13.809Z,1011.16
2019-02-12T13:33:26.391Z,1011.09
2019-02-12T13:34:35.881Z,1011.08
2019-02-12T13:35:47.188Z,1011.04
2019-02-12T13:36:58.620Z,1011.05
2019-02-12T13:38:09.917Z,1011.02
2019-02-12T13:39:21.219Z,1010.97
2019-02-12T13:40:32.623Z,1010.91
2019-02-12T13:41:43.906Z,1010.86
2019-02-12T13:42:55.205Z,1010.82
2019-02-12T13:44:06.618Z,1010.88
2019-02-12T13:45:17.915Z,1010.90
2019-02-12T13:46:29.196Z,1010.90
2019-02-12T13:47:40.635Z,1010.86
2019-02-12T13:48:51.926Z,1010.81
2019-02-12T13:50:03.208Z,1010.77
2019-02-12T13:51:14.631Z,1010.87
2019-02-12T13:52:25.930Z,1010.91
2019-02-12T13:53:37.236Z,1010.82
2019-02-12T13:54:48.630Z,1010.73
2019-02-12T13:55:59.926Z,1010.61
2019-02-12T13:57:11.235Z,1010.59
2019-02-12T13:58:22.051Z,1010.51
2019-02-12T13:59:33.647Z,1010.43
2019-02-12T14:00:44.697Z,1010.38
2019-02-12T14:01:56.014Z,1010.39
2019-02-12T14:03:07.320Z,1010.37
2019-02-12T14:04:19.639Z,1010.35
2019-02-12T14:05:30.947Z,1010.42
2019-02-12T14:06:42.262Z,1010.46
2019-02-12T14:07:54.651Z,1010.53
2019-02-12T14:09:05.642Z,1010.62
2019-02-12T14:10:17.941Z,1010.80
2019-02-12T14:11:29.240Z,1010.79
2019-02-12T14:12:40.633Z,1010.86
2019-02-12T14:13:51.947Z,1010.93
2019-02-12T14:15:03.254Z,1011.04
2019-02-12T14:16:14.627Z,1011.06
2019-02-12T14:17:25.930Z,1011.13
2019-02-12T14:18:38.240Z,1011.24
2019-02-12T14:19:49.544Z,1011.35
2019-02-12T14:21:00.375Z,1011.43